首页
METAR-TAF:

METAR-TAF

机场 :

Carroll, 艾奥瓦州, 美国

纬度: 42-03N, 经度: 094-47W, 海拔: 375米

当前天气观测

该预报发布于9分钟前的10:35 UTC
风速4节,风向东转东南
温度 15°C
湿度 100%
气压 1014 hPa
能見度: 16.1公里
天空无云

METAR: KCIN 131035Z AUTO 12004KT 10SM CLR 15/15 A2994 RMK AO2

时间: 05:44 (10:44 UTC)


TAF: 丢失

超过4000个机场的气象观测和天气预报(METAR&TAF报告)。

可查询的气象台以黄色和红色小点在地图上表示。

将鼠标移到小点上方,可查看气象台名称。

然后点击查看天气观测和预报。

如需切换地图:点击带黑十字的绿色按钮放大地图;点击带横线的绿色按钮缩小地图;或者点击绿色箭头查看邻近地区的地图。


METAR-TAF: